Time;durP1;ratioP1;P1;durP2;ratioP2;P2;SDS_P1;SDS_P2;PMS_P1;PMS_P2;Temp;Humidity;BMP_temperature;BMP_pressure;BME280_temperature;BME280_humidity;BME280_pressure;Samples;Min_cycle;Max_cycle;Signal;HPM_P1;HPM_P2
2021/04/28 00:00:30;;;;;;;2.10;2.00;;;;;;;19.63;39.30;94980.34;5064518;28;20472;-54
2021/04/28 00:02:56;;;;;;;2.20;2.00;;;;;;;19.63;38.96;94980.34;5045665;28;20505;-54
2021/04/28 00:05:21;;;;;;;2.35;2.20;;;;;;;19.62;39.53;94982.28;5047292;28;20056;-55
2021/04/28 00:07:47;;;;;;;2.65;2.00;;;;;;;19.61;39.47;94982.56;5045715;28;20484;-54
2021/04/28 00:10:14;;;;;;;2.15;2.05;;;;;;;19.61;39.31;94974.41;5028960;28;20095;-55
2021/04/28 00:12:40;;;;;;;2.60;2.40;;;;;;;19.61;39.39;94974.41;5046790;28;20496;-55
2021/04/28 00:15:14;;;;;;;2.65;1.67;;;;;;;19.59;39.41;94976.66;5048288;28;20053;-55
2021/04/28 00:17:40;;;;;;;2.40;2.00;;;;;;;19.58;39.55;94967.72;5047081;28;20132;-56
2021/04/28 00:20:07;;;;;;;1.95;1.85;;;;;;;19.58;39.52;94969.63;5047231;28;20393;-55
2021/04/28 00:22:33;;;;;;;2.58;2.38;;;;;;;19.57;39.48;94965.28;5047366;28;20045;-56
2021/04/28 00:24:59;;;;;;;2.55;2.25;;;;;;;19.56;39.70;94967.22;5047123;28;20040;-54
2021/04/28 00:27:24;;;;;;;2.30;2.20;;;;;;;19.56;39.61;94972.66;5046985;28;20049;-53
2021/04/28 00:29:50;;;;;;;2.50;2.15;;;;;;;19.55;39.53;94968.31;5046293;28;20083;-55
2021/04/28 00:32:15;;;;;;;2.00;1.90;;;;;;;19.56;39.59;94974.56;5046327;28;20570;-54
2021/04/28 00:34:41;;;;;;;2.35;2.17;;;;;;;19.54;39.56;94972.16;5047023;28;20147;-55
2021/04/28 00:37:07;;;;;;;2.85;2.22;;;;;;;19.53;39.60;94959.69;5048164;28;20076;-54
2021/04/28 00:39:32;;;;;;;2.45;2.22;;;;;;;19.54;39.68;94971.38;5045859;28;20675;-55
2021/04/28 00:41:58;;;;;;;1.90;1.80;;;;;;;19.53;39.55;94973.25;5046762;28;20068;-55
2021/04/28 00:44:23;;;;;;;2.28;2.10;;;;;;;19.51;39.40;94964.63;5046674;28;20069;-54
2021/04/28 00:46:49;;;;;;;3.22;2.10;;;;;;;19.52;39.74;94958.09;5047634;28;20072;-56
2021/04/28 00:49:14;;;;;;;2.10;2.00;;;;;;;19.50;39.78;94957.59;5029075;28;20120;-55
2021/04/28 00:51:40;;;;;;;2.38;2.25;;;;;;;19.51;39.61;94952.97;5047936;28;20076;-56
2021/04/28 00:54:06;;;;;;;2.95;2.10;;;;;;;19.48;39.69;94956.31;5046944;28;20064;-54
2021/04/28 00:56:31;;;;;;;2.35;1.88;;;;;;;19.48;39.56;94957.09;5028600;28;20056;-55
2021/04/28 00:58:57;;;;;;;2.10;1.85;;;;;;;19.48;39.59;94950.88;5055273;28;20076;-55
2021/04/28 01:01:23;;;;;;;2.55;2.20;;;;;;;19.48;39.57;94953.59;5064598;28;20125;-55
2021/04/28 01:03:48;;;;;;;2.20;2.00;;;;;;;19.45;39.69;94946.84;5066808;28;20075;-55
2021/04/28 01:06:14;;;;;;;2.30;1.90;;;;;;;19.46;39.53;94945.75;5066151;28;20044;-55
2021/04/28 01:08:40;;;;;;;2.53;2.30;;;;;;;19.44;39.53;94946.06;5066382;28;20139;-56
2021/04/28 01:11:06;;;;;;;2.00;1.85;;;;;;;19.44;39.58;94951.50;5066843;28;20056;-56
2021/04/28 01:13:32;;;;;;;1.85;1.75;;;;;;;19.44;39.69;94950.69;5065734;28;20189;-54
2021/04/28 01:15:57;;;;;;;2.53;2.33;;;;;;;19.43;39.48;94949.91;5066183;28;20052;-55
2021/04/28 01:18:23;;;;;;;2.08;1.98;;;;;;;19.44;39.42;94947.97;5065979;28;20062;-54
2021/04/28 01:20:49;;;;;;;2.22;2.03;;;;;;;19.43;39.53;94949.91;5064722;28;20561;-56
2021/04/28 01:23:16;;;;;;;2.00;1.90;;;;;;;19.41;39.60;94946.69;5066618;28;20053;-55
2021/04/28 01:25:41;;;;;;;2.67;2.03;;;;;;;19.40;39.33;94950.50;5060795;28;20412;-57
2021/04/28 01:28:08;;;;;;;2.38;1.80;;;;;;;19.41;39.66;94948.63;5046766;28;20057;-54
2021/04/28 01:30:56;;;;;;;1.88;1.77;;;;;;;19.38;39.60;94944.59;5045916;28;20436;-55
2021/04/28 01:33:24;;;;;;;2.22;1.70;;;;;;;19.39;39.30;94948.13;5051353;28;20098;-56
2021/04/28 01:35:52;;;;;;;2.95;1.85;;;;;;;19.37;39.52;94947.63;5064228;28;20471;-56
2021/04/28 01:38:18;;;;;;;2.15;1.98;;;;;;;19.37;39.38;94951.13;5064469;28;20834;-56
2021/04/28 01:40:43;;;;;;;2.85;2.00;;;;;;;19.35;39.57;94949.84;5065332;28;20131;-55
2021/04/28 01:43:09;;;;;;;2.55;2.03;;;;;;;19.35;39.59;94949.84;5065476;28;20071;-54
2021/04/28 01:45:35;;;;;;;2.78;2.45;;;;;;;19.35;39.45;94950.66;5048195;28;20095;-55
2021/04/28 01:48:04;;;;;;;3.40;2.50;;;;;;;19.35;39.63;94958.00;5067127;28;20237;-55
2021/04/28 01:50:29;;;;;;;2.75;1.80;;;;;;;19.33;39.52;94957.50;5065821;28;20515;-56
2021/04/28 01:52:55;;;;;;;2.15;1.98;;;;;;;19.32;39.36;94953.16;5048030;28;20090;-56
2021/04/28 01:55:20;;;;;;;1.90;1.80;;;;;;;19.32;39.69;94953.97;5047947;28;20506;-55
2021/04/28 01:57:46;;;;;;;2.17;1.98;;;;;;;19.32;39.60;94950.47;5065250;28;20155;-54
2021/04/28 02:00:16;;;;;;;2.35;2.10;;;;;;;19.31;39.58;94949.66;5047804;28;20079;-55
2021/04/28 02:02:41;;;;;;;2.10;2.00;;;;;;;19.31;39.54;94957.00;5065850;28;20051;-56
2021/04/28 02:05:07;;;;;;;2.15;2.03;;;;;;;19.30;39.70;94948.03;5064844;28;20161;-56
2021/04/28 02:07:33;;;;;;;3.15;2.85;;;;;;;19.29;39.72;94954.59;5065878;28;20052;-56
2021/04/28 02:09:59;;;;;;;2.88;2.00;;;;;;;19.29;39.51;94959.22;5064151;28;20075;-56
2021/04/28 02:12:25;;;;;;;2.00;1.90;;;;;;;19.28;39.78;94954.91;5063899;28;20423;-56
2021/04/28 02:14:51;;;;;;;2.42;2.15;;;;;;;19.28;39.82;94957.63;5064843;28;20151;-56
2021/04/28 02:17:17;;;;;;;2.60;2.40;;;;;;;19.26;39.78;94952.50;5047626;28;20052;-56
2021/04/28 02:19:43;;;;;;;2.10;1.92;;;;;;;19.26;39.71;94957.13;5063851;28;20044;-56
2021/04/28 02:22:08;;;;;;;2.25;2.05;;;;;;;19.25;39.76;94956.34;5047975;28;20155;-55
2021/04/28 02:24:35;;;;;;;2.22;2.05;;;;;;;19.25;39.45;94950.91;5065157;28;20053;-55
2021/04/28 02:27:01;;;;;;;2.20;1.98;;;;;;;19.24;39.58;94952.81;5063717;28;20256;-56
2021/04/28 02:29:26;;;;;;;1.92;1.83;;;;;;;19.24;39.94;94954.72;5064649;28;20145;-56
2021/04/28 02:31:52;;;;;;;2.30;2.10;;;;;;;19.23;39.66;94953.91;5064145;28;20135;-57
2021/04/28 02:34:17;;;;;;;2.13;1.60;;;;;;;19.22;39.67;94954.22;5064678;28;20052;-56
2021/04/28 02:36:47;;;;;;;2.30;2.10;;;;;;;19.22;39.72;94948.78;5046357;28;20040;-55
2021/04/28 02:39:33;;;;;;;2.88;2.35;;;;;;;19.19;39.65;94950.22;5046985;28;20371;-55
2021/04/28 02:41:58;;;;;;;1.73;1.63;;;;;;;19.21;39.56;94952.63;5063027;28;20150;-55
2021/04/28 02:44:25;;;;;;;1.58;1.48;;;;;;;19.19;39.76;94946.72;5046059;28;20048;-54
2021/04/28 02:46:51;;;;;;;1.63;1.52;;;;;;;19.18;39.62;94945.91;5064524;28;20121;-55
2021/04/28 02:49:17;;;;;;;2.25;1.98;;;;;;;19.16;39.59;94944.63;5065742;28;20093;-55
2021/04/28 02:51:42;;;;;;;2.22;2.03;;;;;;;19.18;39.60;94950.53;5046327;28;20457;-55
2021/04/28 02:54:08;;;;;;;2.00;1.80;;;;;;;19.17;39.81;94947.00;5063685;28;20072;-55
2021/04/28 02:56:34;;;;;;;1.75;1.65;;;;;;;19.17;39.81;94946.22;5064304;28;20052;-55
2021/04/28 02:58:59;;;;;;;1.83;1.73;;;;;;;19.16;39.89;94945.41;5064760;28;20353;-55
2021/04/28 03:01:25;;;;;;;1.90;1.80;;;;;;;19.16;39.67;94947.34;5062932;28;20080;-56
2021/04/28 03:03:52;;;;;;;1.98;1.83;;;;;;;19.15;39.93;94949.22;5063187;28;20044;-54
2021/04/28 03:06:17;;;;;;;1.92;1.70;;;;;;;19.15;39.82;94953.88;5046405;28;20047;-54
2021/04/28 03:08:46;;;;;;;1.83;1.73;;;;;;;19.14;39.98;94953.06;5046022;28;20040;-54
2021/04/28 03:11:11;;;;;;;1.67;1.52;;;;;;;19.14;39.98;94944.13;5062922;28;20134;-54
2021/04/28 03:13:37;;;;;;;2.13;1.90;;;;;;;19.13;39.81;94950.66;5064786;28;20131;-54
2021/04/28 03:16:03;;;;;;;2.28;1.88;;;;;;;19.11;39.88;94942.81;5064120;28;20040;-54
2021/04/28 03:18:28;;;;;;;2.05;1.95;;;;;;;19.12;39.78;94949.88;5063899;28;20381;-55
2021/04/28 03:20:54;;;;;;;1.92;1.73;;;;;;;19.11;39.94;94947.44;5063944;28;20080;-54
2021/04/28 03:23:20;;;;;;;2.35;1.92;;;;;;;19.11;39.71;94950.16;5062987;28;20128;-55
2021/04/28 03:25:46;;;;;;;1.65;1.55;;;;;;;19.10;40.09;94954.81;5060866;28;20102;-54
2021/04/28 03:28:11;;;;;;;1.42;1.33;;;;;;;19.09;39.81;94946.97;5064218;28;20087;-55
2021/04/28 03:30:37;;;;;;;1.90;1.80;;;;;;;19.09;40.07;94955.09;5065182;28;20091;-55
2021/04/28 03:33:03;;;;;;;2.05;1.90;;;;;;;19.08;39.80;94956.22;5064282;28;20128;-55
2021/04/28 03:35:28;;;;;;;1.98;1.83;;;;;;;19.07;40.07;94949.97;5064213;28;20127;-56
2021/04/28 03:37:54;;;;;;;2.10;1.90;;;;;;;19.06;39.88;94951.09;5063981;28;20131;-54
2021/04/28 03:40:19;;;;;;;1.90;1.80;;;;;;;19.07;39.92;94957.31;5063462;28;20419;-55
2021/04/28 03:42:45;;;;;;;2.83;1.98;;;;;;;19.05;40.08;94952.19;5063637;28;20048;-55
2021/04/28 03:45:11;;;;;;;1.63;1.52;;;;;;;19.05;40.33;94949.47;5063807;28;20078;-57
2021/04/28 03:47:37;;;;;;;2.75;1.75;;;;;;;19.04;40.07;94956.03;5063462;28;20525;-54
2021/04/28 03:50:03;;;;;;;2.72;2.10;;;;;;;19.04;39.91;94962.25;5065510;28;20095;-56
2021/04/28 03:52:29;;;;;;;1.75;1.65;;;;;;;19.03;39.94;94957.94;5063989;28;20046;-55
2021/04/28 03:54:54;;;;;;;1.63;1.52;;;;;;;19.02;40.23;94967.19;5063639;28;20414;-55
2021/04/28 03:57:20;;;;;;;2.15;1.77;;;;;;;19.02;40.14;94956.34;5064034;28;20044;-55
2021/04/28 03:59:45;;;;;;;2.15;1.95;;;;;;;19.02;40.01;94972.63;5063752;28;20137;-54
2021/04/28 04:02:11;;;;;;;1.80;1.70;;;;;;;19.00;40.01;94963.97;5044952;28;20048;-53
2021/04/28 04:04:37;;;;;;;1.83;1.67;;;;;;;19.01;40.06;94973.75;5043239;28;20056;-55
2021/04/28 04:07:02;;;;;;;1.63;1.52;;;;;;;18.99;40.07;94970.53;5044182;28;20052;-54
2021/04/28 04:09:28;;;;;;;1.90;1.80;;;;;;;18.99;40.10;94973.25;5043705;28;20823;-55
2021/04/28 04:11:53;;;;;;;1.35;1.23;;;;;;;18.99;40.22;94977.84;5043281;28;20048;-55
2021/04/28 04:14:19;;;;;;;1.80;1.67;;;;;;;18.99;40.13;94972.41;5043712;28;20520;-55
2021/04/28 04:16:45;;;;;;;1.70;1.60;;;;;;;18.99;40.01;94972.41;5043463;28;20048;-56
2021/04/28 04:19:11;;;;;;;2.10;1.70;;;;;;;18.98;40.44;94978.97;5043332;28;20048;-55
2021/04/28 04:21:36;;;;;;;1.58;1.48;;;;;;;18.97;40.41;94980.06;5046984;28;20072;-54
2021/04/28 04:24:02;;;;;;;1.60;1.50;;;;;;;18.96;40.25;94979.28;5046754;28;20056;-54
2021/04/28 04:26:28;;;;;;;1.65;1.55;;;;;;;18.96;40.22;94973.03;5046705;28;20044;-55
2021/04/28 04:28:53;;;;;;;1.98;1.85;;;;;;;18.95;40.33;94983.09;5047218;28;20179;-54
2021/04/28 04:31:19;;;;;;;1.88;1.75;;;;;;;18.92;40.27;94972.84;5047535;28;20903;-54
2021/04/28 04:33:44;;;;;;;1.95;1.85;;;;;;;18.94;40.08;94973.34;5047176;28;20076;-54
2021/04/28 04:36:10;;;;;;;2.75;1.80;;;;;;;18.95;40.35;94974.13;5047312;28;20084;-54
2021/04/28 04:38:36;;;;;;;1.48;1.38;;;;;;;18.92;40.37;94975.56;5047323;28;20738;-55
2021/04/28 04:41:01;;;;;;;1.63;1.52;;;;;;;18.92;40.16;94974.78;5046779;28;20163;-55
2021/04/28 04:43:27;;;;;;;1.70;1.60;;;;;;;18.91;40.46;94979.41;5046062;28;20130;-54
2021/04/28 04:45:52;;;;;;;1.50;1.40;;;;;;;18.91;40.42;94973.97;5046370;28;20804;-54
2021/04/28 04:48:18;;;;;;;1.83;1.73;;;;;;;18.90;40.27;94974.28;5046656;28;20083;-54
2021/04/28 04:50:44;;;;;;;2.35;1.85;;;;;;;18.90;40.25;94979.69;5049204;28;20082;-54
2021/04/28 04:53:10;;;;;;;1.50;1.40;;;;;;;18.88;40.46;94981.91;5047764;28;20037;-54
2021/04/28 04:55:36;;;;;;;1.77;1.60;;;;;;;18.88;40.28;94977.28;5047588;28;20052;-55
2021/04/28 04:58:02;;;;;;;1.70;1.60;;;;;;;18.88;40.40;94979.19;5046784;28;20037;-55
2021/04/28 05:00:27;;;;;;;1.60;1.30;;;;;;;18.87;40.52;94978.41;5050537;28;20040;-56
2021/04/28 05:02:53;;;;;;;1.20;1.20;;;;;;;18.86;40.35;94976.78;5065362;28;20044;-56
2021/04/28 05:05:18;;;;;;;1.73;1.60;;;;;;;18.87;40.38;94983.03;5066339;28;20071;-53
2021/04/28 05:07:44;;;;;;;1.52;1.50;;;;;;;18.86;40.35;94981.41;5066527;28;20795;-55
2021/04/28 05:10:11;;;;;;;2.72;1.60;;;;;;;18.82;40.42;94973.91;5066316;28;20071;-55
2021/04/28 05:12:36;;;;;;;1.63;1.30;;;;;;;18.85;40.58;94987.97;5067297;28;20051;-54
2021/04/28 05:15:03;;;;;;;1.95;1.77;;;;;;;18.84;40.33;94992.56;5066405;28;20045;-55
2021/04/28 05:17:29;;;;;;;1.40;1.40;;;;;;;18.83;40.49;94989.06;5066506;28;20075;-56
2021/04/28 05:19:54;;;;;;;1.40;1.30;;;;;;;18.83;40.80;94993.69;5065069;28;20075;-55
2021/04/28 05:22:25;;;;;;;1.65;1.40;;;;;;;18.82;40.50;94992.06;5065630;28;20072;-54
2021/04/28 05:24:50;;;;;;;1.48;1.38;;;;;;;18.81;40.51;94991.28;5061710;28;20500;-55
2021/04/28 05:27:16;;;;;;;1.45;1.35;;;;;;;18.81;40.79;94994.00;5066066;28;20075;-55
2021/04/28 05:29:42;;;;;;;1.45;1.40;;;;;;;18.81;40.45;94996.72;5065782;28;20058;-54
2021/04/28 05:32:07;;;;;;;1.90;1.77;;;;;;;18.80;40.41;94995.13;5065660;28;20621;-56
2021/04/28 05:34:33;;;;;;;1.40;1.30;;;;;;;18.79;40.26;94996.22;5063858;28;20066;-55
2021/04/28 05:36:58;;;;;;;1.80;1.70;;;;;;;18.78;40.76;95005.47;5065716;28;20044;-55
2021/04/28 05:39:24;;;;;;;1.50;1.40;;;;;;;18.78;40.58;95001.91;5065206;28;20133;-56
2021/04/28 05:41:50;;;;;;;2.08;1.88;;;;;;;18.78;40.69;95004.63;5065663;28;20105;-55
2021/04/28 05:44:15;;;;;;;1.92;1.83;;;;;;;18.77;40.49;94992.16;5065041;28;20083;-56
2021/04/28 05:46:41;;;;;;;1.67;1.58;;;;;;;18.78;40.81;94997.34;5065123;28;20045;-54
2021/04/28 05:49:06;;;;;;;1.73;1.63;;;;;;;18.77;40.65;94994.88;5065944;28;20139;-56
2021/04/28 05:51:32;;;;;;;1.20;1.20;;;;;;;18.76;40.78;95002.22;5065461;28;20103;-56
2021/04/28 05:53:58;;;;;;;1.50;1.40;;;;;;;18.74;40.59;94995.47;5065418;28;20103;-56
2021/04/28 05:56:24;;;;;;;2.45;1.75;;;;;;;18.75;40.59;95005.25;5065632;28;20052;-56
2021/04/28 05:58:49;;;;;;;2.15;1.60;;;;;;;18.74;40.72;95007.16;5065659;28;20051;-56
2021/04/28 06:01:15;;;;;;;1.95;1.60;;;;;;;18.74;40.65;95011.75;5054384;28;20076;-56
2021/04/28 06:03:41;;;;;;;1.60;1.50;;;;;;;18.73;40.73;95008.25;5044844;28;20076;-56
2021/04/28 06:06:08;;;;;;;1.60;1.50;;;;;;;18.72;40.56;95003.94;5046048;28;20053;-56
2021/04/28 06:08:34;;;;;;;3.08;1.63;;;;;;;18.72;40.77;95003.13;5044762;28;20051;-57
2021/04/28 06:10:59;;;;;;;1.80;1.60;;;;;;;18.71;40.78;95006.97;5043221;28;20175;-56
2021/04/28 06:13:25;;;;;;;1.48;1.38;;;;;;;18.72;40.63;95009.38;5044944;28;20044;-54
2021/04/28 06:15:50;;;;;;;1.60;1.50;;;;;;;18.71;40.88;95005.03;5044767;28;20144;-55
2021/04/28 06:18:16;;;;;;;1.63;1.50;;;;;;;18.71;40.59;95012.38;5043921;28;20084;-55
2021/04/28 06:20:41;;;;;;;1.42;1.33;;;;;;;18.69;40.47;95012.69;5044210;28;20481;-54
2021/04/28 06:23:07;;;;;;;1.70;1.60;;;;;;;18.69;40.75;95011.88;5044843;28;20057;-55
2021/04/28 06:25:33;;;;;;;1.45;1.35;;;;;;;18.68;40.96;95012.97;5045253;28;20041;-55
2021/04/28 06:27:58;;;;;;;1.90;1.75;;;;;;;18.69;40.85;95020.81;5045497;28;20087;-56
2021/04/28 06:30:24;;;;;;;1.48;1.38;;;;;;;18.68;40.93;95008.38;5045848;28;20447;-55
2021/04/28 06:32:49;;;;;;;2.05;1.63;;;;;;;18.68;41.14;95013.78;5027006;28;20412;-55
2021/04/28 06:35:15;;;;;;;1.67;1.67;;;;;;;18.68;41.08;95012.97;5044834;28;20088;-56
2021/04/28 06:37:41;;;;;;;1.90;1.73;;;;;;;18.68;41.41;95021.94;5049640;28;20392;-54
2021/04/28 06:40:08;;;;;;;1.23;1.20;;;;;;;18.66;41.04;95010.59;5065384;28;20060;-54
2021/04/28 06:42:33;;;;;;;1.58;1.48;;;;;;;18.67;41.52;95017.59;5064707;28;20045;-54
2021/04/28 06:44:59;;;;;;;1.42;1.33;;;;;;;18.67;41.66;95016.81;5063671;28;20078;-54
2021/04/28 06:47:25;;;;;;;2.85;1.50;;;;;;;18.67;41.57;95014.88;5063524;28;20082;-56
2021/04/28 06:49:52;;;;;;;1.73;1.48;;;;;;;18.68;41.64;95015.69;5063857;28;20439;-54
2021/04/28 06:52:17;;;;;;;1.50;1.40;;;;;;;18.69;41.46;95017.31;5064318;28;20060;-56
2021/04/28 06:54:43;;;;;;;1.25;1.15;;;;;;;18.69;41.70;95028.16;5064072;28;20048;-54
2021/04/28 06:57:08;;;;;;;1.50;1.40;;;;;;;18.68;41.72;95021.94;5065000;28;20143;-56
2021/04/28 06:59:34;;;;;;;1.38;1.25;;;;;;;18.69;41.89;95022.72;5057277;28;20391;-54
2021/04/28 07:01:59;;;;;;;1.42;1.40;;;;;;;18.69;41.85;95026.22;5061450;28;20114;-54
2021/04/28 07:04:25;;;;;;;1.40;1.30;;;;;;;18.68;41.70;95024.66;5062595;28;20085;-56
2021/04/28 07:06:51;;;;;;;1.50;1.40;;;;;;;18.68;41.93;95024.66;5062146;28;20135;-54
2021/04/28 07:09:17;;;;;;;1.45;1.40;;;;;;;18.70;41.69;95021.59;5064006;28;20048;-55
2021/04/28 07:11:42;;;;;;;2.22;1.42;;;;;;;18.68;41.91;95021.94;5052222;28;20076;-55
2021/04/28 07:14:08;;;;;;;1.77;1.40;;;;;;;18.67;41.64;95019.53;5065048;28;20577;-55
2021/04/28 07:16:34;;;;;;;1.30;1.20;;;;;;;18.68;41.76;95023.81;5064858;28;20063;-55
2021/04/28 07:18:59;;;;;;;2.65;1.60;;;;;;;18.70;41.83;95032.47;5062141;28;20044;-56
2021/04/28 07:21:25;;;;;;;1.98;1.25;;;;;;;18.69;41.93;95025.44;5043187;28;20130;-55
2021/04/28 07:23:50;;;;;;;1.45;1.45;;;;;;;18.68;42.06;95037.38;5043699;28;20517;-55
2021/04/28 07:26:16;;;;;;;1.40;1.30;;;;;;;18.68;41.78;95048.22;5043783;28;20131;-56
2021/04/28 07:28:42;;;;;;;1.40;1.30;;;;;;;18.68;42.21;95040.09;5042219;28;20069;-53
2021/04/28 07:31:07;;;;;;;2.13;1.50;;;;;;;18.68;42.06;95042.81;5044732;28;20091;-55
2021/04/28 07:33:33;;;;;;;1.38;1.38;;;;;;;18.69;42.04;95042.50;5043912;28;20506;-55
2021/04/28 07:35:59;;;;;;;1.45;1.40;;;;;;;18.69;42.31;95047.13;5044052;28;20052;-55
2021/04/28 07:38:24;;;;;;;1.67;1.48;;;;;;;18.68;42.34;95046.34;5044264;28;20068;-55
2021/04/28 07:40:50;;;;;;;1.35;1.33;;;;;;;18.68;42.10;95048.22;5050347;28;20093;-56
2021/04/28 07:43:16;;;;;;;1.40;1.30;;;;;;;18.68;42.44;95054.47;5062685;28;20614;-54
2021/04/28 07:45:42;;;;;;;1.40;1.30;;;;;;;18.68;42.43;95048.22;5063367;28;20040;-55
2021/04/28 07:48:14;;;;;;;1.10;1.08;;;;;;;18.68;42.28;95043.63;5063442;28;20129;-55
2021/04/28 07:50:40;;;;;;;3.65;1.40;;;;;;;18.66;42.52;95045.84;5065063;28;20048;-55
2021/04/28 07:53:06;;;;;;;1.63;1.55;;;;;;;18.69;42.65;95045.22;5064180;28;20041;-54
2021/04/28 07:55:32;;;;;;;1.60;1.50;;;;;;;18.71;42.40;95050.34;5065805;28;20045;-54
2021/04/28 07:57:58;;;;;;;3.17;1.65;;;;;;;18.72;42.72;95049.22;5067432;28;20072;-55
2021/04/28 08:00:23;;;;;;;1.75;1.63;;;;;;;18.73;42.68;95057.06;5066170;28;20059;-54
2021/04/28 08:02:49;;;;;;;1.80;1.33;;;;;;;18.73;42.92;95064.41;5067627;28;20044;-55
2021/04/28 08:05:15;;;;;;;2.45;1.95;;;;;;;18.74;42.93;95057.88;5067081;28;20422;-55
2021/04/28 08:07:41;;;;;;;1.98;1.60;;;;;;;18.74;42.87;95063.28;5068079;28;20149;-54
2021/04/28 08:10:07;;;;;;;1.95;1.40;;;;;;;18.74;42.81;95068.72;5068218;28;20051;-55
2021/04/28 08:12:33;;;;;;;1.92;1.20;;;;;;;18.73;42.92;95057.06;5067443;28;20046;-54
2021/04/28 08:15:00;;;;;;;2.20;1.50;;;;;;;18.73;42.79;95059.78;5067147;28;20044;-55
2021/04/28 08:17:26;;;;;;;2.28;1.40;;;;;;;18.73;43.13;95069.84;5066165;28;20067;-54
2021/04/28 08:19:51;;;;;;;1.50;1.40;;;;;;;18.74;43.09;95060.56;5067809;28;20080;-53
2021/04/28 08:22:17;;;;;;;2.05;1.50;;;;;;;18.72;43.11;95069.03;5067964;28;20048;-55
2021/04/28 08:24:42;;;;;;;2.28;1.38;;;;;;;18.73;42.99;95058.97;5067390;28;20067;-53
2021/04/28 08:27:08;;;;;;;1.60;1.50;;;;;;;18.72;43.31;95060.91;5068408;28;20068;-55
2021/04/28 08:29:33;;;;;;;1.52;1.30;;;;;;;18.73;43.75;95067.13;5067550;28;20534;-55
2021/04/28 08:31:59;;;;;;;1.40;1.30;;;;;;;18.75;43.41;95062.19;5067210;28;20084;-55
2021/04/28 08:34:25;;;;;;;1.25;1.15;;;;;;;18.75;43.58;95067.63;5067401;28;20119;-54
2021/04/28 08:36:50;;;;;;;1.70;1.35;;;;;;;18.74;43.91;95066.00;5067225;28;20052;-54
2021/04/28 08:39:16;;;;;;;2.17;1.67;;;;;;;18.74;44.08;95066.81;5067077;28;20135;-54
2021/04/28 08:41:41;;;;;;;5.25;3.33;;;;;;;18.75;44.47;95073.03;5067238;28;20071;-54
2021/04/28 08:44:07;;;;;;;8.80;4.60;;;;;;;18.76;44.81;95071.94;5067629;28;20064;-54
2021/04/28 08:46:35;;;;;;;9.90;5.60;;;;;;;18.75;44.79;95071.13;5067041;28;20098;-58
2021/04/28 08:49:01;;;;;;;17.20;8.55;;;;;;;18.77;45.09;95073.53;5067291;28;20451;-54
2021/04/28 08:51:27;;;;;;;18.13;9.60;;;;;;;18.79;45.46;95074.88;5066732;28;20060;-54
2021/04/28 08:53:52;;;;;;;20.35;11.95;;;;;;;18.80;46.14;95071.06;5048951;28;20465;-58
2021/04/28 08:56:19;;;;;;;26.42;12.82;;;;;;;18.83;46.17;95077.78;5049081;28;20097;-58
2021/04/28 08:58:45;;;;;;;33.17;19.00;;;;;;;18.84;46.44;95079.38;5066059;28;20044;-53
2021/04/28 09:01:27;;;;;;;15.70;9.27;;;;;;;18.84;45.34;95079.38;5066845;28;20118;-55
2021/04/28 09:03:53;;;;;;;32.15;17.38;;;;;;;18.88;46.64;95085.00;5063285;28;20403;-54
2021/04/28 09:06:29;;;;;;;39.72;22.08;;;;;;;18.87;47.15;95078.78;5065344;28;20047;-53
2021/04/28 09:08:55;;;;;;;33.55;18.98;;;;;;;18.91;47.46;95073.53;5064898;28;20052;-54
2021/04/28 09:11:52;;;;;;;33.38;18.85;;;;;;;18.92;47.40;95073.25;5064761;28;20055;-54
2021/04/28 09:14:19;;;;;;;26.58;14.65;;;;;;;18.97;47.03;95088.59;5065870;28;20572;-54
2021/04/28 09:16:54;;;;;;;27.48;16.15;;;;;;;18.95;47.26;95080.78;5066450;28;20055;-55
2021/04/28 09:19:28;;;;;;;25.52;14.57;;;;;;;18.96;46.75;95087.81;5066127;28;20192;-55
2021/04/28 09:21:58;;;;;;;22.60;14.18;;;;;;;18.99;46.56;95086.38;5046737;28;20040;-54
2021/04/28 09:24:25;;;;;;;19.42;12.02;;;;;;;18.98;46.67;95088.31;5048270;28;20041;-56
2021/04/28 09:26:55;;;;;;;19.42;11.00;;;;;;;18.99;46.05;95083.66;5046121;28;20130;-56
2021/04/28 09:29:22;;;;;;;22.25;11.93;;;;;;;19.00;46.25;95085.28;5044880;28;20041;-55
2021/04/28 09:31:58;;;;;;;17.48;10.05;;;;;;;19.00;46.05;95083.38;5046289;28;20420;-56
2021/04/28 09:34:29;;;;;;;16.63;10.07;;;;;;;19.01;45.98;95082.28;5046005;28;20151;-56
2021/04/28 09:37:16;;;;;;;19.98;10.38;;;;;;;19.00;45.77;95083.38;5049915;28;20078;-54
2021/04/28 09:39:45;;;;;;;14.68;9.82;;;;;;;19.01;45.81;95085.00;5065144;28;20586;-56
2021/04/28 09:42:12;;;;;;;18.48;9.05;;;;;;;19.01;45.83;95090.41;5067041;28;20385;-55
2021/04/28 09:44:38;;;;;;;19.17;11.32;;;;;;;19.01;45.89;95082.28;5066776;28;20044;-55
2021/04/28 09:47:12;;;;;;;17.13;10.38;;;;;;;19.00;45.40;95088.81;5065471;28;20044;-55
2021/04/28 09:49:50;;;;;;;16.25;9.80;;;;;;;19.01;45.55;95079.56;5066925;28;20052;-55
2021/04/28 09:52:18;;;;;;;17.48;8.88;;;;;;;19.01;45.26;95079.56;5065885;28;20088;-54
2021/04/28 09:54:44;;;;;;;13.70;8.25;;;;;;;19.02;45.53;95074.94;5065802;28;20140;-56
2021/04/28 09:57:09;;;;;;;11.73;7.47;;;;;;;19.03;45.13;95079.25;5066079;28;20053;-56
2021/04/28 09:59:43;;;;;;;15.07;8.18;;;;;;;19.01;44.97;95084.16;5064230;28;20492;-56
2021/04/28 10:02:12;;;;;;;11.07;7.28;;;;;;;18.99;45.45;95080.97;5066031;28;20044;-56
2021/04/28 10:04:37;;;;;;;13.00;7.05;;;;;;;19.03;44.96;95092.81;5066379;28;20098;-56
2021/04/28 10:07:03;;;;;;;13.57;7.22;;;;;;;19.02;44.96;95085.78;5047339;28;20064;-56
2021/04/28 10:09:35;;;;;;;12.93;7.13;;;;;;;19.02;45.09;95083.06;5065222;28;20044;-55
2021/04/28 10:12:05;;;;;;;11.02;6.50;;;;;;;19.02;44.75;95088.50;5064806;28;20417;-58
2021/04/28 10:14:32;;;;;;;12.32;6.65;;;;;;;19.01;44.78;95082.28;5064535;28;20736;-55
2021/04/28 10:16:59;;;;;;;8.25;5.88;;;;;;;19.01;44.71;95076.84;5065371;28;20131;-54
2021/04/28 10:19:25;;;;;;;9.40;5.28;;;;;;;19.01;44.59;95071.44;5064332;28;20051;-53
2021/04/28 10:21:51;;;;;;;9.60;5.30;;;;;;;19.00;44.64;95083.38;5064895;28;20044;-55
2021/04/28 10:24:20;;;;;;;11.90;8.75;;;;;;;19.00;44.81;95075.22;5064244;28;20826;-54
2021/04/28 10:26:49;;;;;;;21.35;14.50;;;;;;;18.99;44.67;95070.94;5064012;28;20048;-54
2021/04/28 10:29:18;;;;;;;34.35;21.45;;;;;;;19.00;44.77;95080.66;5046832;28;20047;-53
2021/04/28 10:31:44;;;;;;;33.67;20.63;;;;;;;19.01;45.15;95074.13;5065136;28;20231;-54
2021/04/28 10:34:10;;;;;;;29.83;17.58;;;;;;;18.99;44.92;95068.22;5048082;28;20041;-56
2021/04/28 10:36:35;;;;;;;27.63;14.45;;;;;;;19.00;45.29;95060.88;5065051;28;20119;-54
2021/04/28 10:39:01;;;;;;;21.85;13.98;;;;;;;19.00;45.14;95069.81;5047166;28;20079;-54
2021/04/28 10:41:36;;;;;;;20.92;13.48;;;;;;;19.00;45.17;95069.00;5063445;28;20047;-54
2021/04/28 10:44:01;;;;;;;;;;;;;;;19.01;44.72;95070.59;5064988;28;20044;-53
2021/04/28 10:46:26;;;;;;;15.88;11.52;;;;;;;18.99;45.23;95067.38;5064642;28;19920;-55
2021/04/28 10:48:52;;;;;;;17.00;11.30;;;;;;;18.99;45.42;95070.94;5064834;28;20071;-55
2021/04/28 10:51:35;;;;;;;16.10;10.43;;;;;;;18.99;45.34;95062.78;5063833;28;20087;-54
2021/04/28 10:54:23;;;;;;;16.23;10.05;;;;;;;19.00;45.46;95077.94;5061865;28;20423;-54
2021/04/28 10:56:59;;;;;;;17.05;10.45;;;;;;;19.01;45.38;95070.59;5063012;28;20131;-54
2021/04/28 10:59:41;;;;;;;19.70;9.57;;;;;;;19.00;45.15;95072.53;5064217;28;20058;-55
2021/04/28 11:02:11;;;;;;;14.95;8.65;;;;;;;19.00;45.28;95072.53;5063652;28;20135;-55
2021/04/28 11:04:37;;;;;;;13.18;8.70;;;;;;;19.01;45.38;95065.16;5064922;28;20044;-54
2021/04/28 11:07:03;;;;;;;12.18;8.05;;;;;;;19.00;45.49;95067.09;5062839;28;21080;-55
2021/04/28 11:09:28;;;;;;;12.07;7.50;;;;;;;19.01;45.49;95063.28;5063371;28;20048;-54
2021/04/28 11:11:56;;;;;;;12.32;7.78;;;;;;;19.01;45.28;95068.72;5063480;28;20056;-55
2021/04/28 11:14:27;;;;;;;13.68;8.15;;;;;;;19.02;45.34;95070.31;5063143;28;20474;-54
2021/04/28 11:17:01;;;;;;;12.75;7.40;;;;;;;19.02;45.36;95064.88;5061606;28;20057;-54
2021/04/28 11:19:33;;;;;;;11.73;6.63;;;;;;;19.03;45.15;95069.22;5064327;28;20106;-54
2021/04/28 11:22:10;;;;;;;10.18;5.82;;;;;;;19.03;45.24;95060.25;5064431;28;20055;-54
2021/04/28 11:25:03;;;;;;;10.45;5.70;;;;;;;19.03;45.33;95058.34;5061397;28;20044;-54
2021/04/28 11:27:42;;;;;;;8.32;5.57;;;;;;;19.03;45.41;95066.50;5053822;28;20860;-54
2021/04/28 11:30:38;;;;;;;8.00;5.68;;;;;;;19.02;45.16;95067.59;5063400;28;20036;-54